sensor_id;sensor_type;location;lat;lon;timestamp;temperature;humidity
14682;DHT22;7429;52.498;13.480;2023-08-07T00:02:33;15.40;99.90
14682;DHT22;7429;52.498;13.480;2023-08-07T00:05:37;15.40;99.90
14682;DHT22;7429;52.498;13.480;2023-08-07T00:08:40;15.40;99.90
14682;DHT22;7429;52.498;13.480;2023-08-07T00:11:45;15.40;99.90
14682;DHT22;7429;52.498;13.480;2023-08-07T00:14:50;15.40;99.90
14682;DHT22;7429;52.498;13.480;2023-08-07T00:17:53;15.40;99.90
14682;DHT22;7429;52.498;13.480;2023-08-07T00:20:56;15.50;99.90
14682;DHT22;7429;52.498;13.480;2023-08-07T00:23:59;15.50;99.90
14682;DHT22;7429;52.498;13.480;2023-08-07T00:27:05;15.50;99.90
14682;DHT22;7429;52.498;13.480;2023-08-07T00:30:12;15.50;99.90
14682;DHT22;7429;52.498;13.480;2023-08-07T00:33:16;15.50;99.90
14682;DHT22;7429;52.498;13.480;2023-08-07T00:36:19;15.50;99.90
14682;DHT22;7429;52.498;13.480;2023-08-07T00:39:22;15.50;99.90
14682;DHT22;7429;52.498;13.480;2023-08-07T00:42:28;15.50;99.90
14682;DHT22;7429;52.498;13.480;2023-08-07T00:45:34;15.50;99.90
14682;DHT22;7429;52.498;13.480;2023-08-07T00:48:39;15.50;99.90
14682;DHT22;7429;52.498;13.480;2023-08-07T00:51:43;15.50;99.90
14682;DHT22;7429;52.498;13.480;2023-08-07T00:54:46;15.50;99.90
14682;DHT22;7429;52.498;13.480;2023-08-07T00:57:51;15.50;99.90
14682;DHT22;7429;52.498;13.480;2023-08-07T01:00:54;15.50;99.90
14682;DHT22;7429;52.498;13.480;2023-08-07T01:03:57;15.40;99.90
14682;DHT22;7429;52.498;13.480;2023-08-07T01:07:01;15.50;99.90
14682;DHT22;7429;52.498;13.480;2023-08-07T01:10:06;15.50;99.90
14682;DHT22;7429;52.498;13.480;2023-08-07T01:13:16;15.50;99.90
14682;DHT22;7429;52.498;13.480;2023-08-07T01:16:27;15.50;99.90
14682;DHT22;7429;52.498;13.480;2023-08-07T01:19:37;15.50;99.90
14682;DHT22;7429;52.498;13.480;2023-08-07T01:22:43;15.50;99.90
14682;DHT22;7429;52.498;13.480;2023-08-07T01:25:46;15.50;99.90
14682;DHT22;7429;52.498;13.480;2023-08-07T01:28:55;15.60;99.90
14682;DHT22;7429;52.498;13.480;2023-08-07T01:32:04;15.50;99.90
14682;DHT22;7429;52.498;13.480;2023-08-07T01:35:12;15.50;99.90
14682;DHT22;7429;52.498;13.480;2023-08-07T01:38:24;15.50;99.90
14682;DHT22;7429;52.498;13.480;2023-08-07T01:41:30;15.50;99.90
14682;DHT22;7429;52.498;13.480;2023-08-07T01:44:33;15.60;99.90
14682;DHT22;7429;52.498;13.480;2023-08-07T01:47:36;15.60;99.90
14682;DHT22;7429;52.498;13.480;2023-08-07T01:50:40;15.60;99.90
14682;DHT22;7429;52.498;13.480;2023-08-07T01:53:45;15.60;99.90
14682;DHT22;7429;52.498;13.480;2023-08-07T01:56:49;15.50;99.90
14682;DHT22;7429;52.498;13.480;2023-08-07T01:59:52;15.50;99.90
14682;DHT22;7429;52.498;13.480;2023-08-07T02:02:57;15.50;99.90
14682;DHT22;7429;52.498;13.480;2023-08-07T02:06:01;15.40;99.90
14682;DHT22;7429;52.498;13.480;2023-08-07T02:09:06;15.30;99.90
14682;DHT22;7429;52.498;13.480;2023-08-07T02:12:09;15.30;99.90
14682;DHT22;7429;52.498;13.480;2023-08-07T02:15:12;15.30;99.90
14682;DHT22;7429;52.498;13.480;2023-08-07T02:18:15;15.20;99.90
14682;DHT22;7429;52.498;13.480;2023-08-07T02:21:19;15.20;99.90
14682;DHT22;7429;52.498;13.480;2023-08-07T02:24:27;15.20;99.90
14682;DHT22;7429;52.498;13.480;2023-08-07T02:27:30;15.20;99.90
14682;DHT22;7429;52.498;13.480;2023-08-07T02:30:33;15.20;99.90
14682;DHT22;7429;52.498;13.480;2023-08-07T02:33:36;15.20;99.90
14682;DHT22;7429;52.498;13.480;2023-08-07T02:36:40;15.30;99.90
14682;DHT22;7429;52.498;13.480;2023-08-07T02:39:44;15.30;99.90
14682;DHT22;7429;52.498;13.480;2023-08-07T02:42:47;15.30;99.90
14682;DHT22;7429;52.498;13.480;2023-08-07T02:45:50;15.30;99.90
14682;DHT22;7429;52.498;13.480;2023-08-07T02:48:53;15.40;99.90
14682;DHT22;7429;52.498;13.480;2023-08-07T02:51:56;15.40;99.90
14682;DHT22;7429;52.498;13.480;2023-08-07T02:55:01;15.40;99.90
14682;DHT22;7429;52.498;13.480;2023-08-07T02:58:04;15.40;99.90
14682;DHT22;7429;52.498;13.480;2023-08-07T03:01:08;15.40;99.90
14682;DHT22;7429;52.498;13.480;2023-08-07T03:04:11;15.50;99.90
14682;DHT22;7429;52.498;13.480;2023-08-07T03:07:14;15.50;99.90
14682;DHT22;7429;52.498;13.480;2023-08-07T03:10:19;15.50;99.90
14682;DHT22;7429;52.498;13.480;2023-08-07T03:13:29;15.50;99.90
14682;DHT22;7429;52.498;13.480;2023-08-07T03:16:32;15.50;99.90
14682;DHT22;7429;52.498;13.480;2023-08-07T03:19:35;15.60;99.90
14682;DHT22;7429;52.498;13.480;2023-08-07T03:22:40;15.60;99.90
14682;DHT22;7429;52.498;13.480;2023-08-07T03:25:45;15.60;99.90
14682;DHT22;7429;52.498;13.480;2023-08-07T03:28:48;15.60;99.90
14682;DHT22;7429;52.498;13.480;2023-08-07T03:31:52;15.60;99.90
14682;DHT22;7429;52.498;13.480;2023-08-07T03:34:58;15.60;99.90
14682;DHT22;7429;52.498;13.480;2023-08-07T03:38:07;15.60;99.90
14682;DHT22;7429;52.498;13.480;2023-08-07T03:41:11;15.60;99.90
14682;DHT22;7429;52.498;13.480;2023-08-07T03:44:17;15.50;99.90
14682;DHT22;7429;52.498;13.480;2023-08-07T03:47:20;15.50;99.90
14682;DHT22;7429;52.498;13.480;2023-08-07T03:50:24;15.60;99.90
14682;DHT22;7429;52.498;13.480;2023-08-07T03:53:27;15.60;99.90
14682;DHT22;7429;52.498;13.480;2023-08-07T03:56:31;15.50;99.90
14682;DHT22;7429;52.498;13.480;2023-08-07T03:59:41;15.60;99.90
14682;DHT22;7429;52.498;13.480;2023-08-07T04:02:46;15.60;99.90
14682;DHT22;7429;52.498;13.480;2023-08-07T04:05:51;15.60;99.90
14682;DHT22;7429;52.498;13.480;2023-08-07T04:08:56;15.60;99.90
14682;DHT22;7429;52.498;13.480;2023-08-07T04:12:01;15.60;99.90
14682;DHT22;7429;52.498;13.480;2023-08-07T04:15:06;15.60;99.90
14682;DHT22;7429;52.498;13.480;2023-08-07T04:18:11;15.50;99.90
14682;DHT22;7429;52.498;13.480;2023-08-07T04:21:14;15.50;99.90
14682;DHT22;7429;52.498;13.480;2023-08-07T04:24:18;15.60;99.90
14682;DHT22;7429;52.498;13.480;2023-08-07T04:27:22;15.60;99.90
14682;DHT22;7429;52.498;13.480;2023-08-07T04:30:26;15.60;99.90
14682;DHT22;7429;52.498;13.480;2023-08-07T04:33:29;15.60;99.90
14682;DHT22;7429;52.498;13.480;2023-08-07T04:36:32;15.60;99.90
14682;DHT22;7429;52.498;13.480;2023-08-07T04:39:36;15.60;99.90
14682;DHT22;7429;52.498;13.480;2023-08-07T04:42:40;15.50;99.90
14682;DHT22;7429;52.498;13.480;2023-08-07T04:45:43;15.50;99.90
14682;DHT22;7429;52.498;13.480;2023-08-07T04:48:47;15.60;99.90
14682;DHT22;7429;52.498;13.480;2023-08-07T04:51:50;15.60;99.90
14682;DHT22;7429;52.498;13.480;2023-08-07T04:54:53;15.60;99.90
14682;DHT22;7429;52.498;13.480;2023-08-07T04:57:58;15.60;99.90
14682;DHT22;7429;52.498;13.480;2023-08-07T05:01:01;15.60;99.90
14682;DHT22;7429;52.498;13.480;2023-08-07T05:04:05;15.60;99.90
14682;DHT22;7429;52.498;13.480;2023-08-07T05:07:09;15.60;99.90
14682;DHT22;7429;52.498;13.480;2023-08-07T05:10:12;15.60;99.90
14682;DHT22;7429;52.498;13.480;2023-08-07T05:13:17;15.70;99.90
14682;DHT22;7429;52.498;13.480;2023-08-07T05:16:20;15.70;99.90
14682;DHT22;7429;52.498;13.480;2023-08-07T05:19:23;15.70;99.90
14682;DHT22;7429;52.498;13.480;2023-08-07T05:22:26;15.60;99.90
14682;DHT22;7429;52.498;13.480;2023-08-07T05:25:29;15.60;99.90
14682;DHT22;7429;52.498;13.480;2023-08-07T05:28:34;15.60;99.90
14682;DHT22;7429;52.498;13.480;2023-08-07T05:31:37;15.60;99.90
14682;DHT22;7429;52.498;13.480;2023-08-07T05:34:41;15.50;99.90
14682;DHT22;7429;52.498;13.480;2023-08-07T05:37:45;15.50;99.90
14682;DHT22;7429;52.498;13.480;2023-08-07T05:40:48;15.50;99.90
14682;DHT22;7429;52.498;13.480;2023-08-07T05:43:53;15.60;99.90
14682;DHT22;7429;52.498;13.480;2023-08-07T05:46:56;15.50;99.90
14682;DHT22;7429;52.498;13.480;2023-08-07T05:49:59;15.50;99.90
14682;DHT22;7429;52.498;13.480;2023-08-07T05:53:03;15.60;99.90
14682;DHT22;7429;52.498;13.480;2023-08-07T05:56:06;15.50;99.90
14682;DHT22;7429;52.498;13.480;2023-08-07T05:59:10;15.60;99.90
14682;DHT22;7429;52.498;13.480;2023-08-07T06:02:15;15.60;99.90
14682;DHT22;7429;52.498;13.480;2023-08-07T06:05:19;15.60;99.90
14682;DHT22;7429;52.498;13.480;2023-08-07T06:08:25;15.70;99.90
14682;DHT22;7429;52.498;13.480;2023-08-07T06:11:31;15.70;99.90
14682;DHT22;7429;52.498;13.480;2023-08-07T06:14:39;15.70;99.90
14682;DHT22;7429;52.498;13.480;2023-08-07T06:17:43;15.80;99.90
14682;DHT22;7429;52.498;13.480;2023-08-07T06:20:50;15.80;99.90
14682;DHT22;7429;52.498;13.480;2023-08-07T06:23:55;15.90;99.90
14682;DHT22;7429;52.498;13.480;2023-08-07T06:26:59;16.00;99.90
14682;DHT22;7429;52.498;13.480;2023-08-07T06:30:04;16.10;99.90
14682;DHT22;7429;52.498;13.480;2023-08-07T06:33:08;16.20;99.90
14682;DHT22;7429;52.498;13.480;2023-08-07T06:36:15;16.20;99.90
14682;DHT22;7429;52.498;13.480;2023-08-07T06:39:20;16.30;99.90
14682;DHT22;7429;52.498;13.480;2023-08-07T06:42:25;16.40;99.90
14682;DHT22;7429;52.498;13.480;2023-08-07T06:45:30;16.50;99.90
14682;DHT22;7429;52.498;13.480;2023-08-07T06:48:33;16.60;99.90
14682;DHT22;7429;52.498;13.480;2023-08-07T06:51:36;16.60;99.90
14682;DHT22;7429;52.498;13.480;2023-08-07T06:54:41;16.70;99.90
14682;DHT22;7429;52.498;13.480;2023-08-07T06:57:45;16.70;99.90
14682;DHT22;7429;52.498;13.480;2023-08-07T07:00:49;16.70;99.90
14682;DHT22;7429;52.498;13.480;2023-08-07T07:03:52;16.80;99.90
14682;DHT22;7429;52.498;13.480;2023-08-07T07:06:55;16.80;99.90
14682;DHT22;7429;52.498;13.480;2023-08-07T07:09:59;16.90;99.90
14682;DHT22;7429;52.498;13.480;2023-08-07T07:13:03;16.90;99.90
14682;DHT22;7429;52.498;13.480;2023-08-07T07:16:08;17.00;99.90
14682;DHT22;7429;52.498;13.480;2023-08-07T07:19:13;17.10;99.90
14682;DHT22;7429;52.498;13.480;2023-08-07T07:22:16;17.10;99.90
14682;DHT22;7429;52.498;13.480;2023-08-07T07:25:22;17.20;99.90
14682;DHT22;7429;52.498;13.480;2023-08-07T07:28:26;17.30;99.90
14682;DHT22;7429;52.498;13.480;2023-08-07T07:31:31;17.30;99.90
14682;DHT22;7429;52.498;13.480;2023-08-07T07:34:40;17.40;99.90
14682;DHT22;7429;52.498;13.480;2023-08-07T07:37:43;17.40;99.90
14682;DHT22;7429;52.498;13.480;2023-08-07T07:40:46;17.50;99.90
14682;DHT22;7429;52.498;13.480;2023-08-07T07:43:49;17.50;99.90
14682;DHT22;7429;52.498;13.480;2023-08-07T07:46:54;17.50;99.90
14682;DHT22;7429;52.498;13.480;2023-08-07T07:50:05;17.60;99.90
14682;DHT22;7429;52.498;13.480;2023-08-07T07:53:10;17.60;99.90
14682;DHT22;7429;52.498;13.480;2023-08-07T07:56:13;17.60;99.90
14682;DHT22;7429;52.498;13.480;2023-08-07T07:59:16;17.60;99.90
14682;DHT22;7429;52.498;13.480;2023-08-07T08:02:21;17.60;99.90
14682;DHT22;7429;52.498;13.480;2023-08-07T08:05:28;17.70;99.90
14682;DHT22;7429;52.498;13.480;2023-08-07T08:08:31;17.70;99.90
14682;DHT22;7429;52.498;13.480;2023-08-07T08:11:34;17.70;99.90
14682;DHT22;7429;52.498;13.480;2023-08-07T08:14:37;17.70;99.90
14682;DHT22;7429;52.498;13.480;2023-08-07T08:17:58;17.70;99.90
14682;DHT22;7429;52.498;13.480;2023-08-07T08:21:01;17.70;99.90
14682;DHT22;7429;52.498;13.480;2023-08-07T08:24:04;17.80;99.90
14682;DHT22;7429;52.498;13.480;2023-08-07T08:27:09;17.90;99.90
14682;DHT22;7429;52.498;13.480;2023-08-07T08:30:12;17.90;99.90
14682;DHT22;7429;52.498;13.480;2023-08-07T08:33:17;17.90;99.90
14682;DHT22;7429;52.498;13.480;2023-08-07T08:36:23;17.90;99.90
14682;DHT22;7429;52.498;13.480;2023-08-07T08:39:27;17.90;99.90
14682;DHT22;7429;52.498;13.480;2023-08-07T08:42:30;17.90;99.90
14682;DHT22;7429;52.498;13.480;2023-08-07T08:45:35;17.90;99.90
14682;DHT22;7429;52.498;13.480;2023-08-07T08:48:45;17.90;99.90
14682;DHT22;7429;52.498;13.480;2023-08-07T08:51:51;17.90;99.90
14682;DHT22;7429;52.498;13.480;2023-08-07T08:54:56;17.90;99.90
14682;DHT22;7429;52.498;13.480;2023-08-07T08:58:00;17.90;99.90
14682;DHT22;7429;52.498;13.480;2023-08-07T09:01:04;18.00;99.90
14682;DHT22;7429;52.498;13.480;2023-08-07T09:04:10;18.10;99.90
14682;DHT22;7429;52.498;13.480;2023-08-07T09:07:15;18.20;99.90
14682;DHT22;7429;52.498;13.480;2023-08-07T09:10:19;18.30;99.90
14682;DHT22;7429;52.498;13.480;2023-08-07T09:13:26;18.40;99.90
14682;DHT22;7429;52.498;13.480;2023-08-07T09:16:31;18.40;99.90
14682;DHT22;7429;52.498;13.480;2023-08-07T09:19:36;18.50;99.90
14682;DHT22;7429;52.498;13.480;2023-08-07T09:22:40;18.60;99.90
14682;DHT22;7429;52.498;13.480;2023-08-07T09:25:44;18.70;99.90
14682;DHT22;7429;52.498;13.480;2023-08-07T09:28:47;18.50;99.90
14682;DHT22;7429;52.498;13.480;2023-08-07T09:31:51;18.40;99.90
14682;DHT22;7429;52.498;13.480;2023-08-07T09:34:55;18.40;99.90
14682;DHT22;7429;52.498;13.480;2023-08-07T09:37:59;18.40;99.90
14682;DHT22;7429;52.498;13.480;2023-08-07T09:41:05;18.50;99.90
14682;DHT22;7429;52.498;13.480;2023-08-07T09:44:09;18.60;99.90
14682;DHT22;7429;52.498;13.480;2023-08-07T09:47:15;18.70;99.90
14682;DHT22;7429;52.498;13.480;2023-08-07T09:50:21;18.80;99.90
14682;DHT22;7429;52.498;13.480;2023-08-07T09:53:27;18.70;99.90
14682;DHT22;7429;52.498;13.480;2023-08-07T09:56:32;18.70;99.90
14682;DHT22;7429;52.498;13.480;2023-08-07T09:59:35;18.70;99.90
14682;DHT22;7429;52.498;13.480;2023-08-07T10:02:41;18.70;99.90
14682;DHT22;7429;52.498;13.480;2023-08-07T10:05:48;18.80;99.90
14682;DHT22;7429;52.498;13.480;2023-08-07T10:08:52;18.70;99.90
14682;DHT22;7429;52.498;13.480;2023-08-07T10:11:58;18.70;99.90
14682;DHT22;7429;52.498;13.480;2023-08-07T10:15:02;18.70;99.90
14682;DHT22;7429;52.498;13.480;2023-08-07T10:18:06;18.70;99.90
14682;DHT22;7429;52.498;13.480;2023-08-07T10:21:10;18.80;99.90
14682;DHT22;7429;52.498;13.480;2023-08-07T10:24:14;18.80;99.90
14682;DHT22;7429;52.498;13.480;2023-08-07T10:27:20;18.80;99.90
14682;DHT22;7429;52.498;13.480;2023-08-07T10:30:25;18.80;99.90
14682;DHT22;7429;52.498;13.480;2023-08-07T10:33:29;18.90;99.90
14682;DHT22;7429;52.498;13.480;2023-08-07T10:36:35;18.90;99.90
14682;DHT22;7429;52.498;13.480;2023-08-07T10:40:03;18.80;99.90
14682;DHT22;7429;52.498;13.480;2023-08-07T10:43:17;18.90;99.90
14682;DHT22;7429;52.498;13.480;2023-08-07T10:46:21;19.00;99.90
14682;DHT22;7429;52.498;13.480;2023-08-07T10:49:34;19.10;99.90
14682;DHT22;7429;52.498;13.480;2023-08-07T10:52:40;19.30;99.90
14682;DHT22;7429;52.498;13.480;2023-08-07T10:55:43;19.30;99.90
14682;DHT22;7429;52.498;13.480;2023-08-07T10:58:50;19.40;99.90
14682;DHT22;7429;52.498;13.480;2023-08-07T11:01:55;19.40;99.90
14682;DHT22;7429;52.498;13.480;2023-08-07T11:04:58;19.40;99.90
14682;DHT22;7429;52.498;13.480;2023-08-07T11:08:03;19.40;99.90
14682;DHT22;7429;52.498;13.480;2023-08-07T11:11:07;19.40;99.90
14682;DHT22;7429;52.498;13.480;2023-08-07T11:14:12;19.30;99.90
14682;DHT22;7429;52.498;13.480;2023-08-07T11:17:16;19.00;99.90
14682;DHT22;7429;52.498;13.480;2023-08-07T11:20:20;18.60;99.90
14682;DHT22;7429;52.498;13.480;2023-08-07T11:23:25;18.20;99.90
14682;DHT22;7429;52.498;13.480;2023-08-07T11:26:29;18.00;99.90
14682;DHT22;7429;52.498;13.480;2023-08-07T11:29:33;17.90;99.90
14682;DHT22;7429;52.498;13.480;2023-08-07T11:32:38;17.90;99.90
14682;DHT22;7429;52.498;13.480;2023-08-07T11:35:42;17.90;99.90
14682;DHT22;7429;52.498;13.480;2023-08-07T11:38:49;17.90;99.90
14682;DHT22;7429;52.498;13.480;2023-08-07T11:41:53;17.90;99.90
14682;DHT22;7429;52.498;13.480;2023-08-07T11:44:57;17.90;99.90
14682;DHT22;7429;52.498;13.480;2023-08-07T11:48:02;18.00;99.90
14682;DHT22;7429;52.498;13.480;2023-08-07T11:51:06;17.90;99.90
14682;DHT22;7429;52.498;13.480;2023-08-07T11:54:14;17.80;99.90
14682;DHT22;7429;52.498;13.480;2023-08-07T11:57:18;17.90;99.90
14682;DHT22;7429;52.498;13.480;2023-08-07T12:00:25;18.10;99.90
14682;DHT22;7429;52.498;13.480;2023-08-07T12:03:31;18.40;99.90
14682;DHT22;7429;52.498;13.480;2023-08-07T12:06:37;18.50;99.90
14682;DHT22;7429;52.498;13.480;2023-08-07T12:09:43;18.60;99.90
14682;DHT22;7429;52.498;13.480;2023-08-07T12:12:46;18.70;99.90
14682;DHT22;7429;52.498;13.480;2023-08-07T12:15:51;18.90;99.90
14682;DHT22;7429;52.498;13.480;2023-08-07T12:18:55;19.00;99.90
14682;DHT22;7429;52.498;13.480;2023-08-07T12:21:58;19.00;99.90
14682;DHT22;7429;52.498;13.480;2023-08-07T12:25:03;19.00;99.90
14682;DHT22;7429;52.498;13.480;2023-08-07T12:28:07;19.00;99.90
14682;DHT22;7429;52.498;13.480;2023-08-07T12:31:10;19.00;99.90
14682;DHT22;7429;52.498;13.480;2023-08-07T12:34:13;19.00;99.90
14682;DHT22;7429;52.498;13.480;2023-08-07T12:37:20;19.10;99.90
14682;DHT22;7429;52.498;13.480;2023-08-07T12:40:26;19.10;99.90
14682;DHT22;7429;52.498;13.480;2023-08-07T12:43:32;19.10;99.90
14682;DHT22;7429;52.498;13.480;2023-08-07T12:46:41;19.10;99.90
14682;DHT22;7429;52.498;13.480;2023-08-07T12:49:44;19.00;99.90
14682;DHT22;7429;52.498;13.480;2023-08-07T12:52:49;18.90;99.90
14682;DHT22;7429;52.498;13.480;2023-08-07T12:55:54;18.80;99.90
14682;DHT22;7429;52.498;13.480;2023-08-07T12:58:59;18.80;99.90
14682;DHT22;7429;52.498;13.480;2023-08-07T13:02:03;18.80;99.90
14682;DHT22;7429;52.498;13.480;2023-08-07T13:05:07;18.70;99.90
14682;DHT22;7429;52.498;13.480;2023-08-07T13:08:12;18.60;99.90
14682;DHT22;7429;52.498;13.480;2023-08-07T13:11:16;18.60;99.90
14682;DHT22;7429;52.498;13.480;2023-08-07T13:14:19;18.70;99.90
14682;DHT22;7429;52.498;13.480;2023-08-07T13:17:22;19.10;99.90
14682;DHT22;7429;52.498;13.480;2023-08-07T13:20:25;19.70;99.90
14682;DHT22;7429;52.498;13.480;2023-08-07T13:23:29;20.10;99.90
14682;DHT22;7429;52.498;13.480;2023-08-07T13:26:33;20.30;99.90
14682;DHT22;7429;52.498;13.480;2023-08-07T13:29:36;20.40;99.90
14682;DHT22;7429;52.498;13.480;2023-08-07T13:32:40;20.30;99.90
14682;DHT22;7429;52.498;13.480;2023-08-07T13:35:43;20.10;99.90
14682;DHT22;7429;52.498;13.480;2023-08-07T13:38:46;19.90;99.90
14682;DHT22;7429;52.498;13.480;2023-08-07T13:41:50;20.10;99.90
14682;DHT22;7429;52.498;13.480;2023-08-07T13:44:54;20.30;99.90
14682;DHT22;7429;52.498;13.480;2023-08-07T13:47:58;20.40;99.90
14682;DHT22;7429;52.498;13.480;2023-08-07T13:51:01;20.30;99.90
14682;DHT22;7429;52.498;13.480;2023-08-07T13:54:08;20.20;99.90
14682;DHT22;7429;52.498;13.480;2023-08-07T13:57:13;20.20;99.90
14682;DHT22;7429;52.498;13.480;2023-08-07T14:00:17;20.40;99.90
14682;DHT22;7429;52.498;13.480;2023-08-07T14:03:21;20.30;99.90
14682;DHT22;7429;52.498;13.480;2023-08-07T14:06:24;20.20;99.90
14682;DHT22;7429;52.498;13.480;2023-08-07T14:09:28;20.10;99.90
14682;DHT22;7429;52.498;13.480;2023-08-07T14:12:32;20.10;99.90
14682;DHT22;7429;52.498;13.480;2023-08-07T14:15:35;20.10;99.90
14682;DHT22;7429;52.498;13.480;2023-08-07T14:18:38;20.10;99.90
14682;DHT22;7429;52.498;13.480;2023-08-07T14:21:42;20.00;99.90
14682;DHT22;7429;52.498;13.480;2023-08-07T14:24:45;19.90;99.90
14682;DHT22;7429;52.498;13.480;2023-08-07T14:27:54;19.90;99.90
14682;DHT22;7429;52.498;13.480;2023-08-07T14:30:57;20.00;99.90
14682;DHT22;7429;52.498;13.480;2023-08-07T14:34:02;20.00;99.90
14682;DHT22;7429;52.498;13.480;2023-08-07T14:37:06;19.80;99.90
14682;DHT22;7429;52.498;13.480;2023-08-07T14:40:09;19.80;99.90
14682;DHT22;7429;52.498;13.480;2023-08-07T14:43:15;19.70;99.90
14682;DHT22;7429;52.498;13.480;2023-08-07T14:46:19;19.70;99.90
14682;DHT22;7429;52.498;13.480;2023-08-07T14:49:23;19.80;99.90
14682;DHT22;7429;52.498;13.480;2023-08-07T14:52:26;19.80;99.90
14682;DHT22;7429;52.498;13.480;2023-08-07T14:55:30;20.00;99.90
14682;DHT22;7429;52.498;13.480;2023-08-07T14:58:35;20.20;99.90
14682;DHT22;7429;52.498;13.480;2023-08-07T15:01:38;20.10;99.90
14682;DHT22;7429;52.498;13.480;2023-08-07T15:04:41;20.00;99.90
14682;DHT22;7429;52.498;13.480;2023-08-07T15:07:45;19.80;99.90
14682;DHT22;7429;52.498;13.480;2023-08-07T15:10:48;19.60;99.90
14682;DHT22;7429;52.498;13.480;2023-08-07T15:13:58;19.50;99.90
14682;DHT22;7429;52.498;13.480;2023-08-07T15:17:01;19.50;99.90
14682;DHT22;7429;52.498;13.480;2023-08-07T15:20:05;19.50;99.90
14682;DHT22;7429;52.498;13.480;2023-08-07T15:23:12;19.60;99.90
14682;DHT22;7429;52.498;13.480;2023-08-07T15:26:15;19.60;99.90
14682;DHT22;7429;52.498;13.480;2023-08-07T15:29:19;19.80;99.90
14682;DHT22;7429;52.498;13.480;2023-08-07T15:32:23;19.90;99.90
14682;DHT22;7429;52.498;13.480;2023-08-07T15:35:29;19.80;99.90
14682;DHT22;7429;52.498;13.480;2023-08-07T15:38:32;19.60;99.90
14682;DHT22;7429;52.498;13.480;2023-08-07T15:41:40;19.50;99.90
14682;DHT22;7429;52.498;13.480;2023-08-07T15:44:46;19.70;99.90
14682;DHT22;7429;52.498;13.480;2023-08-07T15:47:52;20.30;99.90
14682;DHT22;7429;52.498;13.480;2023-08-07T15:50:58;20.60;99.90
14682;DHT22;7429;52.498;13.480;2023-08-07T15:54:01;20.60;99.90
14682;DHT22;7429;52.498;13.480;2023-08-07T15:57:05;20.70;99.90
14682;DHT22;7429;52.498;13.480;2023-08-07T16:00:14;20.50;99.90
14682;DHT22;7429;52.498;13.480;2023-08-07T16:03:18;20.00;99.90
14682;DHT22;7429;52.498;13.480;2023-08-07T16:06:23;19.70;99.90
14682;DHT22;7429;52.498;13.480;2023-08-07T16:09:27;19.50;99.90
14682;DHT22;7429;52.498;13.480;2023-08-07T16:12:30;19.40;99.90
14682;DHT22;7429;52.498;13.480;2023-08-07T16:15:53;19.30;99.90
14682;DHT22;7429;52.498;13.480;2023-08-07T16:19:15;19.40;99.90
14682;DHT22;7429;52.498;13.480;2023-08-07T16:22:18;19.50;99.90
14682;DHT22;7429;52.498;13.480;2023-08-07T16:25:41;19.40;99.90
14682;DHT22;7429;52.498;13.480;2023-08-07T16:29:03;19.40;99.90
14682;DHT22;7429;52.498;13.480;2023-08-07T16:32:26;19.50;99.90
14682;DHT22;7429;52.498;13.480;2023-08-07T16:35:29;19.40;99.90
14682;DHT22;7429;52.498;13.480;2023-08-07T16:38:32;19.30;99.90
14682;DHT22;7429;52.498;13.480;2023-08-07T16:41:35;19.30;99.90
14682;DHT22;7429;52.498;13.480;2023-08-07T16:44:41;19.30;99.90
14682;DHT22;7429;52.498;13.480;2023-08-07T16:47:46;19.20;99.90
14682;DHT22;7429;52.498;13.480;2023-08-07T16:50:51;19.10;99.90
14682;DHT22;7429;52.498;13.480;2023-08-07T16:54:16;19.00;99.90
14682;DHT22;7429;52.498;13.480;2023-08-07T16:57:19;18.90;99.90
14682;DHT22;7429;52.498;13.480;2023-08-07T17:00:22;18.80;99.90
14682;DHT22;7429;52.498;13.480;2023-08-07T17:03:26;18.80;99.90
14682;DHT22;7429;52.498;13.480;2023-08-07T17:06:29;18.70;99.90
14682;DHT22;7429;52.498;13.480;2023-08-07T17:09:32;18.70;99.90
14682;DHT22;7429;52.498;13.480;2023-08-07T17:12:36;18.70;99.90
14682;DHT22;7429;52.498;13.480;2023-08-07T17:15:41;18.70;99.90
14682;DHT22;7429;52.498;13.480;2023-08-07T17:18:46;18.70;99.90
14682;DHT22;7429;52.498;13.480;2023-08-07T17:21:52;18.60;99.90
14682;DHT22;7429;52.498;13.480;2023-08-07T17:24:58;18.50;99.90
14682;DHT22;7429;52.498;13.480;2023-08-07T17:28:01;18.50;99.90
14682;DHT22;7429;52.498;13.480;2023-08-07T17:31:05;18.60;99.90
14682;DHT22;7429;52.498;13.480;2023-08-07T17:34:09;18.50;99.90
14682;DHT22;7429;52.498;13.480;2023-08-07T17:37:13;18.50;99.90
14682;DHT22;7429;52.498;13.480;2023-08-07T17:40:19;18.50;99.90
14682;DHT22;7429;52.498;13.480;2023-08-07T17:43:22;18.40;99.90
14682;DHT22;7429;52.498;13.480;2023-08-07T17:46:26;18.40;99.90
14682;DHT22;7429;52.498;13.480;2023-08-07T17:49:33;18.30;99.90
14682;DHT22;7429;52.498;13.480;2023-08-07T17:52:41;18.30;99.90
14682;DHT22;7429;52.498;13.480;2023-08-07T17:55:45;18.40;99.90
14682;DHT22;7429;52.498;13.480;2023-08-07T17:58:49;18.30;99.90
14682;DHT22;7429;52.498;13.480;2023-08-07T18:01:54;18.30;99.90
14682;DHT22;7429;52.498;13.480;2023-08-07T18:04:59;18.20;99.90
14682;DHT22;7429;52.498;13.480;2023-08-07T18:08:03;18.10;99.90
14682;DHT22;7429;52.498;13.480;2023-08-07T18:11:06;18.00;99.90
14682;DHT22;7429;52.498;13.480;2023-08-07T18:14:10;17.90;99.90
14682;DHT22;7429;52.498;13.480;2023-08-07T18:17:13;17.90;99.90
14682;DHT22;7429;52.498;13.480;2023-08-07T18:20:18;17.90;99.90
14682;DHT22;7429;52.498;13.480;2023-08-07T18:23:21;17.90;99.90
14682;DHT22;7429;52.498;13.480;2023-08-07T18:26:24;17.80;99.90
14682;DHT22;7429;52.498;13.480;2023-08-07T18:29:27;17.70;99.90
14682;DHT22;7429;52.498;13.480;2023-08-07T18:32:30;17.70;99.90
14682;DHT22;7429;52.498;13.480;2023-08-07T18:35:35;17.70;99.90
14682;DHT22;7429;52.498;13.480;2023-08-07T18:38:42;17.70;99.90
14682;DHT22;7429;52.498;13.480;2023-08-07T18:41:47;17.70;99.90
14682;DHT22;7429;52.498;13.480;2023-08-07T18:44:50;17.70;99.90
14682;DHT22;7429;52.498;13.480;2023-08-07T18:47:56;17.60;99.90
14682;DHT22;7429;52.498;13.480;2023-08-07T18:51:04;17.60;99.90
14682;DHT22;7429;52.498;13.480;2023-08-07T18:54:10;17.60;99.90
14682;DHT22;7429;52.498;13.480;2023-08-07T18:57:14;17.50;99.90
14682;DHT22;7429;52.498;13.480;2023-08-07T19:00:17;17.50;99.90
14682;DHT22;7429;52.498;13.480;2023-08-07T19:03:20;17.50;99.90
14682;DHT22;7429;52.498;13.480;2023-08-07T19:06:27;17.40;99.90
14682;DHT22;7429;52.498;13.480;2023-08-07T19:09:33;17.40;99.90
14682;DHT22;7429;52.498;13.480;2023-08-07T19:12:38;17.40;99.90
14682;DHT22;7429;52.498;13.480;2023-08-07T19:15:44;17.40;99.90
14682;DHT22;7429;52.498;13.480;2023-08-07T19:18:48;17.30;99.90
14682;DHT22;7429;52.498;13.480;2023-08-07T19:21:56;17.30;99.90
14682;DHT22;7429;52.498;13.480;2023-08-07T19:24:59;17.20;99.90
14682;DHT22;7429;52.498;13.480;2023-08-07T19:28:03;17.20;99.90